sensor_id;sensor_type;location;lat;lon;timestamp;temperature;humidity
3923;DHT22;1976;51.694;6.256;2022-09-27T00:00:29;11.00;99.90
3923;DHT22;1976;51.694;6.256;2022-09-27T00:02:54;11.00;99.90
3923;DHT22;1976;51.694;6.256;2022-09-27T00:05:20;11.00;99.90
3923;DHT22;1976;51.694;6.256;2022-09-27T00:07:46;11.10;99.90
3923;DHT22;1976;51.694;6.256;2022-09-27T00:10:12;11.10;99.90
3923;DHT22;1976;51.694;6.256;2022-09-27T00:12:38;11.10;99.90
3923;DHT22;1976;51.694;6.256;2022-09-27T00:15:05;11.10;99.90
3923;DHT22;1976;51.694;6.256;2022-09-27T00:17:31;11.10;99.90
3923;DHT22;1976;51.694;6.256;2022-09-27T00:19:58;11.00;99.90
3923;DHT22;1976;51.694;6.256;2022-09-27T00:22:25;11.00;99.90
3923;DHT22;1976;51.694;6.256;2022-09-27T00:24:51;11.00;99.90
3923;DHT22;1976;51.694;6.256;2022-09-27T00:27:17;11.00;99.90
3923;DHT22;1976;51.694;6.256;2022-09-27T00:29:44;11.00;99.90
3923;DHT22;1976;51.694;6.256;2022-09-27T00:32:11;11.00;99.90
3923;DHT22;1976;51.694;6.256;2022-09-27T00:34:38;11.00;99.90
3923;DHT22;1976;51.694;6.256;2022-09-27T00:37:03;11.00;99.90
3923;DHT22;1976;51.694;6.256;2022-09-27T00:39:29;11.00;99.90
3923;DHT22;1976;51.694;6.256;2022-09-27T00:41:55;11.00;99.90
3923;DHT22;1976;51.694;6.256;2022-09-27T00:49:31;11.10;99.90
3923;DHT22;1976;51.694;6.256;2022-09-27T00:52:03;11.10;99.90
3923;DHT22;1976;51.694;6.256;2022-09-27T00:54:32;11.00;99.90
3923;DHT22;1976;51.694;6.256;2022-09-27T00:56:59;11.10;99.90
3923;DHT22;1976;51.694;6.256;2022-09-27T00:59:32;11.00;99.90
3923;DHT22;1976;51.694;6.256;2022-09-27T01:01:59;11.00;99.90
3923;DHT22;1976;51.694;6.256;2022-09-27T01:04:28;11.00;99.90
3923;DHT22;1976;51.694;6.256;2022-09-27T01:06:55;11.00;99.90
3923;DHT22;1976;51.694;6.256;2022-09-27T01:09:21;11.00;99.90
3923;DHT22;1976;51.694;6.256;2022-09-27T01:31:22;10.80;99.90
3923;DHT22;1976;51.694;6.256;2022-09-27T01:37:36;10.70;99.90
3923;DHT22;1976;51.694;6.256;2022-09-27T01:45:30;10.70;99.90
3923;DHT22;1976;51.694;6.256;2022-09-27T01:48:01;10.60;99.90
3923;DHT22;1976;51.694;6.256;2022-09-27T01:50:45;10.60;99.90
3923;DHT22;1976;51.694;6.256;2022-09-27T01:53:30;10.60;99.90
3923;DHT22;1976;51.694;6.256;2022-09-27T01:56:00;10.50;99.90
3923;DHT22;1976;51.694;6.256;2022-09-27T02:00:59;10.50;99.90
3923;DHT22;1976;51.694;6.256;2022-09-27T02:03:34;10.60;99.90
3923;DHT22;1976;51.694;6.256;2022-09-27T02:06:12;10.50;99.90
3923;DHT22;1976;51.694;6.256;2022-09-27T02:08:54;10.50;99.90
3923;DHT22;1976;51.694;6.256;2022-09-27T02:11:21;10.60;99.90
3923;DHT22;1976;51.694;6.256;2022-09-27T02:14:06;10.50;99.90
3923;DHT22;1976;51.694;6.256;2022-09-27T02:16:52;10.50;99.90
3923;DHT22;1976;51.694;6.256;2022-09-27T02:21:55;10.40;99.90
3923;DHT22;1976;51.694;6.256;2022-09-27T02:24:31;10.40;99.90
3923;DHT22;1976;51.694;6.256;2022-09-27T02:29:40;10.30;99.90
3923;DHT22;1976;51.694;6.256;2022-09-27T02:32:07;10.30;99.90
3923;DHT22;1976;51.694;6.256;2022-09-27T02:34:35;10.30;99.90
3923;DHT22;1976;51.694;6.256;2022-09-27T02:37:02;10.30;99.90
3923;DHT22;1976;51.694;6.256;2022-09-27T02:39:28;10.30;99.90
3923;DHT22;1976;51.694;6.256;2022-09-27T02:41:54;10.30;99.90
3923;DHT22;1976;51.694;6.256;2022-09-27T02:44:23;10.30;99.90
3923;DHT22;1976;51.694;6.256;2022-09-27T02:47:11;10.30;99.90
3923;DHT22;1976;51.694;6.256;2022-09-27T02:50:00;10.20;99.90
3923;DHT22;1976;51.694;6.256;2022-09-27T02:55:31;10.20;99.90
3923;DHT22;1976;51.694;6.256;2022-09-27T03:04:16;10.20;99.90
3923;DHT22;1976;51.694;6.256;2022-09-27T03:06:45;10.10;99.90
3923;DHT22;1976;51.694;6.256;2022-09-27T03:09:23;10.10;99.90
3923;DHT22;1976;51.694;6.256;2022-09-27T03:11:49;10.10;99.90
3923;DHT22;1976;51.694;6.256;2022-09-27T03:14:15;10.10;99.90
3923;DHT22;1976;51.694;6.256;2022-09-27T03:16:41;10.10;99.90
3923;DHT22;1976;51.694;6.256;2022-09-27T03:19:08;10.00;99.90
3923;DHT22;1976;51.694;6.256;2022-09-27T03:21:34;10.00;99.90
3923;DHT22;1976;51.694;6.256;2022-09-27T03:24:00;10.10;99.90
3923;DHT22;1976;51.694;6.256;2022-09-27T03:26:26;9.90;99.90
3923;DHT22;1976;51.694;6.256;2022-09-27T03:28:52;9.90;99.90
3923;DHT22;1976;51.694;6.256;2022-09-27T03:31:18;9.90;99.90
3923;DHT22;1976;51.694;6.256;2022-09-27T03:33:43;10.00;99.90
3923;DHT22;1976;51.694;6.256;2022-09-27T03:36:09;10.00;99.90
3923;DHT22;1976;51.694;6.256;2022-09-27T03:38:37;9.90;99.90
3923;DHT22;1976;51.694;6.256;2022-09-27T03:41:04;9.90;99.90
3923;DHT22;1976;51.694;6.256;2022-09-27T03:45:56;9.80;99.90
3923;DHT22;1976;51.694;6.256;2022-09-27T03:48:21;9.90;99.90
3923;DHT22;1976;51.694;6.256;2022-09-27T03:50:47;9.90;99.90
3923;DHT22;1976;51.694;6.256;2022-09-27T03:53:12;9.80;99.90
3923;DHT22;1976;51.694;6.256;2022-09-27T03:55:38;9.70;99.90
3923;DHT22;1976;51.694;6.256;2022-09-27T03:58:04;9.70;99.90
3923;DHT22;1976;51.694;6.256;2022-09-27T04:00:30;9.70;99.90
3923;DHT22;1976;51.694;6.256;2022-09-27T04:02:57;9.70;99.90
3923;DHT22;1976;51.694;6.256;2022-09-27T04:05:26;9.70;99.90
3923;DHT22;1976;51.694;6.256;2022-09-27T04:07:52;9.80;99.90
3923;DHT22;1976;51.694;6.256;2022-09-27T04:10:17;9.70;99.90
3923;DHT22;1976;51.694;6.256;2022-09-27T04:12:43;9.80;99.90
3923;DHT22;1976;51.694;6.256;2022-09-27T04:15:09;9.80;99.90
3923;DHT22;1976;51.694;6.256;2022-09-27T04:17:35;9.70;99.90
3923;DHT22;1976;51.694;6.256;2022-09-27T04:20:01;9.70;99.90
3923;DHT22;1976;51.694;6.256;2022-09-27T04:22:28;9.60;99.90
3923;DHT22;1976;51.694;6.256;2022-09-27T04:24:54;9.60;99.90
3923;DHT22;1976;51.694;6.256;2022-09-27T04:27:19;9.50;99.90
3923;DHT22;1976;51.694;6.256;2022-09-27T04:29:47;9.50;99.90
3923;DHT22;1976;51.694;6.256;2022-09-27T04:32:13;9.40;99.90
3923;DHT22;1976;51.694;6.256;2022-09-27T04:34:39;9.40;99.90
3923;DHT22;1976;51.694;6.256;2022-09-27T04:37:23;9.30;99.90
3923;DHT22;1976;51.694;6.256;2022-09-27T04:39:49;9.30;99.90
3923;DHT22;1976;51.694;6.256;2022-09-27T04:42:15;9.30;99.90
3923;DHT22;1976;51.694;6.256;2022-09-27T04:44:41;9.40;99.90
3923;DHT22;1976;51.694;6.256;2022-09-27T04:47:07;9.40;99.90
3923;DHT22;1976;51.694;6.256;2022-09-27T04:49:33;9.40;99.90
3923;DHT22;1976;51.694;6.256;2022-09-27T04:51:59;9.40;99.90
3923;DHT22;1976;51.694;6.256;2022-09-27T04:54:25;9.40;99.90
3923;DHT22;1976;51.694;6.256;2022-09-27T04:56:51;9.40;99.90
3923;DHT22;1976;51.694;6.256;2022-09-27T04:59:16;9.40;99.90
3923;DHT22;1976;51.694;6.256;2022-09-27T05:01:42;9.40;99.90
3923;DHT22;1976;51.694;6.256;2022-09-27T05:04:08;9.40;99.90
3923;DHT22;1976;51.694;6.256;2022-09-27T05:06:34;9.40;99.90
3923;DHT22;1976;51.694;6.256;2022-09-27T05:08:59;9.40;99.90
3923;DHT22;1976;51.694;6.256;2022-09-27T05:11:25;9.40;99.90
3923;DHT22;1976;51.694;6.256;2022-09-27T05:13:51;9.40;99.90
3923;DHT22;1976;51.694;6.256;2022-09-27T05:16:17;9.40;99.90
3923;DHT22;1976;51.694;6.256;2022-09-27T05:18:44;9.40;99.90
3923;DHT22;1976;51.694;6.256;2022-09-27T05:21:10;9.40;99.90
3923;DHT22;1976;51.694;6.256;2022-09-27T05:23:36;9.40;99.90
3923;DHT22;1976;51.694;6.256;2022-09-27T05:26:05;9.40;99.90
3923;DHT22;1976;51.694;6.256;2022-09-27T05:28:32;9.50;99.90
3923;DHT22;1976;51.694;6.256;2022-09-27T05:31:00;9.50;99.90
3923;DHT22;1976;51.694;6.256;2022-09-27T05:33:26;9.50;99.90
3923;DHT22;1976;51.694;6.256;2022-09-27T05:35:56;9.60;99.90
3923;DHT22;1976;51.694;6.256;2022-09-27T05:38:22;9.60;99.90
3923;DHT22;1976;51.694;6.256;2022-09-27T05:40:48;9.60;99.90
3923;DHT22;1976;51.694;6.256;2022-09-27T05:43:16;9.60;99.90
3923;DHT22;1976;51.694;6.256;2022-09-27T05:45:43;9.60;99.90
3923;DHT22;1976;51.694;6.256;2022-09-27T05:50:37;9.60;99.90
3923;DHT22;1976;51.694;6.256;2022-09-27T05:53:03;9.60;99.90
3923;DHT22;1976;51.694;6.256;2022-09-27T05:55:29;9.60;99.90
3923;DHT22;1976;51.694;6.256;2022-09-27T05:57:57;9.60;99.90
3923;DHT22;1976;51.694;6.256;2022-09-27T06:00:23;9.60;99.90
3923;DHT22;1976;51.694;6.256;2022-09-27T06:03:01;9.60;99.90
3923;DHT22;1976;51.694;6.256;2022-09-27T06:05:29;9.60;99.90
3923;DHT22;1976;51.694;6.256;2022-09-27T06:08:04;9.60;99.90
3923;DHT22;1976;51.694;6.256;2022-09-27T06:10:31;9.60;99.90
3923;DHT22;1976;51.694;6.256;2022-09-27T06:13:05;9.70;99.90
3923;DHT22;1976;51.694;6.256;2022-09-27T06:15:32;9.70;99.90
3923;DHT22;1976;51.694;6.256;2022-09-27T06:18:05;9.70;99.90
3923;DHT22;1976;51.694;6.256;2022-09-27T06:20:32;9.60;99.90
3923;DHT22;1976;51.694;6.256;2022-09-27T06:23:19;9.70;99.90
3923;DHT22;1976;51.694;6.256;2022-09-27T06:25:45;9.70;99.90
3923;DHT22;1976;51.694;6.256;2022-09-27T06:28:12;9.70;99.90
3923;DHT22;1976;51.694;6.256;2022-09-27T06:30:40;9.80;99.90
3923;DHT22;1976;51.694;6.256;2022-09-27T06:33:06;9.70;99.90
3923;DHT22;1976;51.694;6.256;2022-09-27T06:35:34;9.80;99.90
3923;DHT22;1976;51.694;6.256;2022-09-27T06:38:09;9.70;99.90
3923;DHT22;1976;51.694;6.256;2022-09-27T06:40:35;9.80;99.90
3923;DHT22;1976;51.694;6.256;2022-09-27T06:43:08;9.90;99.90
3923;DHT22;1976;51.694;6.256;2022-09-27T06:45:35;9.80;99.90
3923;DHT22;1976;51.694;6.256;2022-09-27T06:48:06;9.90;99.90
3923;DHT22;1976;51.694;6.256;2022-09-27T06:50:33;10.00;99.90
3923;DHT22;1976;51.694;6.256;2022-09-27T06:53:02;10.00;99.90
3923;DHT22;1976;51.694;6.256;2022-09-27T06:55:28;10.10;99.90
3923;DHT22;1976;51.694;6.256;2022-09-27T06:57:59;10.10;99.90
3923;DHT22;1976;51.694;6.256;2022-09-27T07:00:47;10.10;99.90
3923;DHT22;1976;51.694;6.256;2022-09-27T07:03:14;10.10;99.90
3923;DHT22;1976;51.694;6.256;2022-09-27T07:05:40;10.10;99.90
3923;DHT22;1976;51.694;6.256;2022-09-27T07:08:10;10.10;99.90
3923;DHT22;1976;51.694;6.256;2022-09-27T07:10:37;10.10;99.90
3923;DHT22;1976;51.694;6.256;2022-09-27T07:13:04;10.00;99.90
3923;DHT22;1976;51.694;6.256;2022-09-27T07:15:30;10.00;99.90
3923;DHT22;1976;51.694;6.256;2022-09-27T07:17:58;10.00;99.90
3923;DHT22;1976;51.694;6.256;2022-09-27T07:20:27;10.10;99.90
3923;DHT22;1976;51.694;6.256;2022-09-27T07:22:54;10.20;99.90
3923;DHT22;1976;51.694;6.256;2022-09-27T07:25:21;10.30;99.90
3923;DHT22;1976;51.694;6.256;2022-09-27T07:27:46;10.60;99.90
3923;DHT22;1976;51.694;6.256;2022-09-27T07:32:39;11.00;99.90
3923;DHT22;1976;51.694;6.256;2022-09-27T07:35:06;11.20;99.90
3923;DHT22;1976;51.694;6.256;2022-09-27T07:37:33;11.30;99.90
3923;DHT22;1976;51.694;6.256;2022-09-27T07:40:01;11.30;99.90
3923;DHT22;1976;51.694;6.256;2022-09-27T07:42:27;11.30;99.90
3923;DHT22;1976;51.694;6.256;2022-09-27T07:44:56;11.20;99.90
3923;DHT22;1976;51.694;6.256;2022-09-27T07:47:23;11.30;99.90
3923;DHT22;1976;51.694;6.256;2022-09-27T07:49:50;11.20;99.90
3923;DHT22;1976;51.694;6.256;2022-09-27T07:52:17;11.30;99.90
3923;DHT22;1976;51.694;6.256;2022-09-27T07:54:47;11.40;99.90
3923;DHT22;1976;51.694;6.256;2022-09-27T07:57:16;11.30;99.90
3923;DHT22;1976;51.694;6.256;2022-09-27T07:59:42;11.40;99.90
3923;DHT22;1976;51.694;6.256;2022-09-27T08:04:41;11.20;99.90
3923;DHT22;1976;51.694;6.256;2022-09-27T08:07:12;11.20;99.90
3923;DHT22;1976;51.694;6.256;2022-09-27T08:09:38;11.10;99.90
3923;DHT22;1976;51.694;6.256;2022-09-27T08:12:04;11.00;99.90
3923;DHT22;1976;51.694;6.256;2022-09-27T08:14:30;11.00;99.90
3923;DHT22;1976;51.694;6.256;2022-09-27T08:16:56;10.90;99.90
3923;DHT22;1976;51.694;6.256;2022-09-27T08:19:22;10.80;99.90
3923;DHT22;1976;51.694;6.256;2022-09-27T08:21:50;10.80;99.90
3923;DHT22;1976;51.694;6.256;2022-09-27T08:26:42;10.60;99.90
3923;DHT22;1976;51.694;6.256;2022-09-27T08:29:08;10.40;99.90
3923;DHT22;1976;51.694;6.256;2022-09-27T08:31:34;10.40;99.90
3923;DHT22;1976;51.694;6.256;2022-09-27T08:33:59;10.30;99.90
3923;DHT22;1976;51.694;6.256;2022-09-27T08:36:26;10.30;99.90
3923;DHT22;1976;51.694;6.256;2022-09-27T08:38:52;10.30;99.90
3923;DHT22;1976;51.694;6.256;2022-09-27T08:50:16;10.40;99.90
3923;DHT22;1976;51.694;6.256;2022-09-27T08:52:50;10.60;99.90
3923;DHT22;1976;51.694;6.256;2022-09-27T08:55:51;10.70;99.90
3923;DHT22;1976;51.694;6.256;2022-09-27T08:58:29;10.80;99.90
3923;DHT22;1976;51.694;6.256;2022-09-27T09:01:02;10.80;99.90
3923;DHT22;1976;51.694;6.256;2022-09-27T09:03:30;10.70;99.90
3923;DHT22;1976;51.694;6.256;2022-09-27T09:06:04;10.70;99.90
3923;DHT22;1976;51.694;6.256;2022-09-27T09:26:03;11.00;99.90
3923;DHT22;1976;51.694;6.256;2022-09-27T09:34:33;11.50;99.90
3923;DHT22;1976;51.694;6.256;2022-09-27T09:37:20;11.70;99.90
3923;DHT22;1976;51.694;6.256;2022-09-27T09:39:51;11.80;99.90
3923;DHT22;1976;51.694;6.256;2022-09-27T09:42:32;11.90;99.90
3923;DHT22;1976;51.694;6.256;2022-09-27T09:45:12;11.90;99.90
3923;DHT22;1976;51.694;6.256;2022-09-27T09:48:05;11.90;99.90
3923;DHT22;1976;51.694;6.256;2022-09-27T09:50:47;11.80;99.90
3923;DHT22;1976;51.694;6.256;2022-09-27T09:56:22;11.50;99.90
3923;DHT22;1976;51.694;6.256;2022-09-27T09:58:58;11.30;99.90
3923;DHT22;1976;51.694;6.256;2022-09-27T10:01:38;11.30;99.90
3923;DHT22;1976;51.694;6.256;2022-09-27T10:04:05;11.30;99.90
3923;DHT22;1976;51.694;6.256;2022-09-27T10:06:31;11.30;99.90
3923;DHT22;1976;51.694;6.256;2022-09-27T10:08:57;11.40;99.90
3923;DHT22;1976;51.694;6.256;2022-09-27T10:11:44;11.50;99.90
3923;DHT22;1976;51.694;6.256;2022-09-27T10:14:15;11.40;99.90
3923;DHT22;1976;51.694;6.256;2022-09-27T10:16:45;11.30;99.90
3923;DHT22;1976;51.694;6.256;2022-09-27T10:19:15;11.10;99.90
3923;DHT22;1976;51.694;6.256;2022-09-27T10:21:44;11.10;99.90
3923;DHT22;1976;51.694;6.256;2022-09-27T10:24:13;11.10;99.90
3923;DHT22;1976;51.694;6.256;2022-09-27T10:26:42;11.10;99.90
3923;DHT22;1976;51.694;6.256;2022-09-27T10:29:23;11.10;99.90
3923;DHT22;1976;51.694;6.256;2022-09-27T10:31:50;11.00;99.90
3923;DHT22;1976;51.694;6.256;2022-09-27T10:34:33;11.00;99.90
3923;DHT22;1976;51.694;6.256;2022-09-27T10:37:16;11.10;99.90
3923;DHT22;1976;51.694;6.256;2022-09-27T10:39:45;11.10;99.90
3923;DHT22;1976;51.694;6.256;2022-09-27T10:42:21;11.00;99.90
3923;DHT22;1976;51.694;6.256;2022-09-27T10:44:47;11.00;99.90
3923;DHT22;1976;51.694;6.256;2022-09-27T10:47:17;10.90;99.90
3923;DHT22;1976;51.694;6.256;2022-09-27T10:49:47;10.90;99.90
3923;DHT22;1976;51.694;6.256;2022-09-27T10:52:22;10.80;99.90
3923;DHT22;1976;51.694;6.256;2022-09-27T10:54:59;10.80;99.90
3923;DHT22;1976;51.694;6.256;2022-09-27T10:57:27;10.80;99.90
3923;DHT22;1976;51.694;6.256;2022-09-27T11:00:15;10.80;99.90
3923;DHT22;1976;51.694;6.256;2022-09-27T11:02:58;10.80;99.90
3923;DHT22;1976;51.694;6.256;2022-09-27T11:10:43;11.00;99.90
3923;DHT22;1976;51.694;6.256;2022-09-27T11:13:19;10.90;99.90
3923;DHT22;1976;51.694;6.256;2022-09-27T11:24:45;10.80;99.90
3923;DHT22;1976;51.694;6.256;2022-09-27T11:27:27;10.80;99.90
3923;DHT22;1976;51.694;6.256;2022-09-27T11:38:20;11.30;99.90
3923;DHT22;1976;51.694;6.256;2022-09-27T11:46:35;11.80;99.90
3923;DHT22;1976;51.694;6.256;2022-09-27T11:54:23;12.90;99.90
3923;DHT22;1976;51.694;6.256;2022-09-27T12:07:49;13.40;99.90
3923;DHT22;1976;51.694;6.256;2022-09-27T12:10:17;14.00;99.90
3923;DHT22;1976;51.694;6.256;2022-09-27T12:12:48;14.00;99.90
3923;DHT22;1976;51.694;6.256;2022-09-27T12:15:19;14.30;99.90
3923;DHT22;1976;51.694;6.256;2022-09-27T12:17:49;14.10;99.90
3923;DHT22;1976;51.694;6.256;2022-09-27T12:20:29;13.90;99.90
3923;DHT22;1976;51.694;6.256;2022-09-27T12:25:33;13.50;99.90
3923;DHT22;1976;51.694;6.256;2022-09-27T12:28:20;13.20;99.90
3923;DHT22;1976;51.694;6.256;2022-09-27T12:30:54;13.10;99.90
3923;DHT22;1976;51.694;6.256;2022-09-27T12:33:43;12.60;99.90
3923;DHT22;1976;51.694;6.256;2022-09-27T12:36:16;12.30;99.90
3923;DHT22;1976;51.694;6.256;2022-09-27T12:41:38;12.50;99.90
3923;DHT22;1976;51.694;6.256;2022-09-27T12:44:09;12.70;99.90
3923;DHT22;1976;51.694;6.256;2022-09-27T12:46:59;12.90;99.90
3923;DHT22;1976;51.694;6.256;2022-09-27T12:52:02;13.20;99.90
3923;DHT22;1976;51.694;6.256;2022-09-27T13:00:02;13.70;99.90
3923;DHT22;1976;51.694;6.256;2022-09-27T13:08:43;14.60;99.90
3923;DHT22;1976;51.694;6.256;2022-09-27T13:13:23;15.20;99.90
3923;DHT22;1976;51.694;6.256;2022-09-27T13:15:56;15.20;99.90
3923;DHT22;1976;51.694;6.256;2022-09-27T13:18:30;14.90;99.90
3923;DHT22;1976;51.694;6.256;2022-09-27T13:20:56;14.70;99.90
3923;DHT22;1976;51.694;6.256;2022-09-27T13:47:15;13.60;99.90
3923;DHT22;1976;51.694;6.256;2022-09-27T13:49:50;13.60;99.90
3923;DHT22;1976;51.694;6.256;2022-09-27T13:54:52;13.80;99.90
3923;DHT22;1976;51.694;6.256;2022-09-27T14:00:04;14.80;99.90
3923;DHT22;1976;51.694;6.256;2022-09-27T14:02:58;15.10;99.90
3923;DHT22;1976;51.694;6.256;2022-09-27T14:05:34;15.60;99.90
3923;DHT22;1976;51.694;6.256;2022-09-27T14:08:03;15.80;99.90
3923;DHT22;1976;51.694;6.256;2022-09-27T14:10:29;15.80;99.90
3923;DHT22;1976;51.694;6.256;2022-09-27T14:12:57;15.60;99.90
3923;DHT22;1976;51.694;6.256;2022-09-27T14:15:28;15.40;99.90
3923;DHT22;1976;51.694;6.256;2022-09-27T14:17:57;15.40;99.90
3923;DHT22;1976;51.694;6.256;2022-09-27T14:22:58;15.90;99.90
3923;DHT22;1976;51.694;6.256;2022-09-27T14:25:24;16.00;99.90
3923;DHT22;1976;51.694;6.256;2022-09-27T14:27:50;16.00;99.90
3923;DHT22;1976;51.694;6.256;2022-09-27T14:32:51;15.90;99.90
3923;DHT22;1976;51.694;6.256;2022-09-27T14:35:21;15.70;99.60
3923;DHT22;1976;51.694;6.256;2022-09-27T14:38:09;15.30;99.90
3923;DHT22;1976;51.694;6.256;2022-09-27T14:40:41;15.20;99.90
3923;DHT22;1976;51.694;6.256;2022-09-27T14:43:19;15.00;99.90
3923;DHT22;1976;51.694;6.256;2022-09-27T14:45:47;15.00;99.90
3923;DHT22;1976;51.694;6.256;2022-09-27T14:48:35;14.90;99.90
3923;DHT22;1976;51.694;6.256;2022-09-27T14:53:56;14.60;99.90
3923;DHT22;1976;51.694;6.256;2022-09-27T14:56:26;14.40;99.90
3923;DHT22;1976;51.694;6.256;2022-09-27T14:59:00;14.20;99.90
3923;DHT22;1976;51.694;6.256;2022-09-27T15:01:27;14.10;99.90
3923;DHT22;1976;51.694;6.256;2022-09-27T15:03:55;14.10;99.90
3923;DHT22;1976;51.694;6.256;2022-09-27T15:06:22;14.00;99.90
3923;DHT22;1976;51.694;6.256;2022-09-27T15:08:49;13.70;99.90
3923;DHT22;1976;51.694;6.256;2022-09-27T15:11:17;13.70;99.90
3923;DHT22;1976;51.694;6.256;2022-09-27T15:13:44;13.40;99.90
3923;DHT22;1976;51.694;6.256;2022-09-27T15:16:17;13.20;99.90
3923;DHT22;1976;51.694;6.256;2022-09-27T15:18:49;13.20;99.90
3923;DHT22;1976;51.694;6.256;2022-09-27T15:21:34;12.90;99.90
3923;DHT22;1976;51.694;6.256;2022-09-27T15:24:00;12.90;99.90
3923;DHT22;1976;51.694;6.256;2022-09-27T15:26:39;12.90;99.90
3923;DHT22;1976;51.694;6.256;2022-09-27T15:29:15;12.70;99.90
3923;DHT22;1976;51.694;6.256;2022-09-27T15:31:41;12.70;99.90
3923;DHT22;1976;51.694;6.256;2022-09-27T15:34:16;12.70;99.90
3923;DHT22;1976;51.694;6.256;2022-09-27T15:36:58;12.60;99.90
3923;DHT22;1976;51.694;6.256;2022-09-27T15:39:40;12.60;99.90
3923;DHT22;1976;51.694;6.256;2022-09-27T15:42:12;12.60;99.90
3923;DHT22;1976;51.694;6.256;2022-09-27T15:52:45;12.10;99.90
3923;DHT22;1976;51.694;6.256;2022-09-27T15:55:15;11.90;99.90
3923;DHT22;1976;51.694;6.256;2022-09-27T16:00:13;11.50;99.90
3923;DHT22;1976;51.694;6.256;2022-09-27T16:02:43;11.40;99.90
3923;DHT22;1976;51.694;6.256;2022-09-27T16:05:09;11.30;99.90
3923;DHT22;1976;51.694;6.256;2022-09-27T16:07:35;11.30;99.90
3923;DHT22;1976;51.694;6.256;2022-09-27T16:10:00;11.40;99.90
3923;DHT22;1976;51.694;6.256;2022-09-27T16:12:26;11.40;99.90
3923;DHT22;1976;51.694;6.256;2022-09-27T16:14:55;11.40;99.90
3923;DHT22;1976;51.694;6.256;2022-09-27T16:17:21;11.40;99.90
3923;DHT22;1976;51.694;6.256;2022-09-27T16:19:46;11.40;99.90
3923;DHT22;1976;51.694;6.256;2022-09-27T16:22:12;11.40;99.90
3923;DHT22;1976;51.694;6.256;2022-09-27T16:24:38;11.30;99.90
3923;DHT22;1976;51.694;6.256;2022-09-27T16:27:03;11.30;99.90
3923;DHT22;1976;51.694;6.256;2022-09-27T16:29:29;11.30;99.90
3923;DHT22;1976;51.694;6.256;2022-09-27T16:31:55;11.30;99.90
3923;DHT22;1976;51.694;6.256;2022-09-27T16:34:21;11.20;99.90
3923;DHT22;1976;51.694;6.256;2022-09-27T16:36:48;11.10;99.90
3923;DHT22;1976;51.694;6.256;2022-09-27T16:39:14;11.00;99.90
3923;DHT22;1976;51.694;6.256;2022-09-27T16:41:40;11.00;99.90
3923;DHT22;1976;51.694;6.256;2022-09-27T16:44:08;11.00;99.90
3923;DHT22;1976;51.694;6.256;2022-09-27T16:46:34;11.00;99.90
3923;DHT22;1976;51.694;6.256;2022-09-27T16:49:00;11.00;99.90
3923;DHT22;1976;51.694;6.256;2022-09-27T16:51:26;10.90;99.90
3923;DHT22;1976;51.694;6.256;2022-09-27T16:54:10;10.90;99.90
3923;DHT22;1976;51.694;6.256;2022-09-27T16:56:40;11.00;99.90
3923;DHT22;1976;51.694;6.256;2022-09-27T16:59:06;10.90;99.90
3923;DHT22;1976;51.694;6.256;2022-09-27T17:01:32;10.70;99.90
3923;DHT22;1976;51.694;6.256;2022-09-27T17:03:58;10.50;99.90
3923;DHT22;1976;51.694;6.256;2022-09-27T17:06:25;10.40;99.90
3923;DHT22;1976;51.694;6.256;2022-09-27T17:08:53;10.30;99.90
3923;DHT22;1976;51.694;6.256;2022-09-27T17:11:19;10.20;99.90
3923;DHT22;1976;51.694;6.256;2022-09-27T17:13:46;10.10;99.90
3923;DHT22;1976;51.694;6.256;2022-09-27T17:16:13;10.00;99.90
3923;DHT22;1976;51.694;6.256;2022-09-27T17:18:40;10.00;99.90
3923;DHT22;1976;51.694;6.256;2022-09-27T17:21:07;10.00;99.90
3923;DHT22;1976;51.694;6.256;2022-09-27T17:23:34;9.90;99.90
3923;DHT22;1976;51.694;6.256;2022-09-27T17:26:05;9.90;99.90
3923;DHT22;1976;51.694;6.256;2022-09-27T17:28:32;9.90;99.90
3923;DHT22;1976;51.694;6.256;2022-09-27T17:31:06;9.80;99.90
3923;DHT22;1976;51.694;6.256;2022-09-27T17:33:33;9.80;99.90
3923;DHT22;1976;51.694;6.256;2022-09-27T17:36:08;9.80;99.90
3923;DHT22;1976;51.694;6.256;2022-09-27T17:38:34;9.80;99.90
3923;DHT22;1976;51.694;6.256;2022-09-27T17:41:02;9.80;99.90
3923;DHT22;1976;51.694;6.256;2022-09-27T17:43:28;9.80;99.90
3923;DHT22;1976;51.694;6.256;2022-09-27T17:46:06;9.80;99.90
3923;DHT22;1976;51.694;6.256;2022-09-27T17:48:32;9.90;99.90
3923;DHT22;1976;51.694;6.256;2022-09-27T17:51:17;9.90;99.90
3923;DHT22;1976;51.694;6.256;2022-09-27T17:53:43;9.90;99.90
3923;DHT22;1976;51.694;6.256;2022-09-27T17:56:09;9.90;99.90
3923;DHT22;1976;51.694;6.256;2022-09-27T17:58:35;9.90;99.90
3923;DHT22;1976;51.694;6.256;2022-09-27T18:01:05;9.90;99.90
3923;DHT22;1976;51.694;6.256;2022-09-27T18:03:34;9.90;99.90
3923;DHT22;1976;51.694;6.256;2022-09-27T18:06:07;9.90;99.90
3923;DHT22;1976;51.694;6.256;2022-09-27T18:08:33;9.90;99.90
3923;DHT22;1976;51.694;6.256;2022-09-27T18:11:10;9.90;99.90
3923;DHT22;1976;51.694;6.256;2022-09-27T18:13:37;9.90;99.90
3923;DHT22;1976;51.694;6.256;2022-09-27T18:16:08;9.90;99.90
3923;DHT22;1976;51.694;6.256;2022-09-27T18:21:08;9.80;99.90
3923;DHT22;1976;51.694;6.256;2022-09-27T18:23:43;9.80;99.90
3923;DHT22;1976;51.694;6.256;2022-09-27T18:26:10;9.80;99.90
3923;DHT22;1976;51.694;6.256;2022-09-27T18:28:37;9.80;99.90
3923;DHT22;1976;51.694;6.256;2022-09-27T18:31:09;9.70;99.90
3923;DHT22;1976;51.694;6.256;2022-09-27T18:33:35;9.70;99.90
3923;DHT22;1976;51.694;6.256;2022-09-27T18:36:16;9.60;99.90
3923;DHT22;1976;51.694;6.256;2022-09-27T18:38:43;9.60;99.90
3923;DHT22;1976;51.694;6.256;2022-09-27T18:41:10;9.60;99.90
3923;DHT22;1976;51.694;6.256;2022-09-27T18:43:37;9.50;99.90
3923;DHT22;1976;51.694;6.256;2022-09-27T18:46:04;9.50;99.90
3923;DHT22;1976;51.694;6.256;2022-09-27T18:48:31;9.40;99.90
3923;DHT22;1976;51.694;6.256;2022-09-27T18:50:58;9.40;99.90
3923;DHT22;1976;51.694;6.256;2022-09-27T18:53:23;9.30;99.90
3923;DHT22;1976;51.694;6.256;2022-09-27T18:55:49;9.30;99.90
3923;DHT22;1976;51.694;6.256;2022-09-27T18:58:15;9.30;99.90
3923;DHT22;1976;51.694;6.256;2022-09-27T19:00:41;9.30;99.90
3923;DHT22;1976;51.694;6.256;2022-09-27T19:03:12;9.30;99.90
3923;DHT22;1976;51.694;6.256;2022-09-27T19:05:39;9.20;99.90
3923;DHT22;1976;51.694;6.256;2022-09-27T19:08:05;9.20;99.90
3923;DHT22;1976;51.694;6.256;2022-09-27T19:12:58;9.30;99.90
3923;DHT22;1976;51.694;6.256;2022-09-27T19:15:25;9.30;99.90
3923;DHT22;1976;51.694;6.256;2022-09-27T19:17:52;9.30;99.90
3923;DHT22;1976;51.694;6.256;2022-09-27T19:20:17;9.30;99.90
3923;DHT22;1976;51.694;6.256;2022-09-27T19:22:43;9.30;99.90
3923;DHT22;1976;51.694;6.256;2022-09-27T19:25:09;9.40;99.90
3923;DHT22;1976;51.694;6.256;2022-09-27T19:27:35;9.40;99.90
3923;DHT22;1976;51.694;6.256;2022-09-27T19:30:03;9.30;99.90
3923;DHT22;1976;51.694;6.256;2022-09-27T19:32:29;9.30;99.90
3923;DHT22;1976;51.694;6.256;2022-09-27T19:34:55;9.30;99.90
3923;DHT22;1976;51.694;6.256;2022-09-27T19:37:20;9.30;99.90
3923;DHT22;1976;51.694;6.256;2022-09-27T19:39:46;9.30;99.90
3923;DHT22;1976;51.694;6.256;2022-09-27T19:42:11;9.30;99.90
3923;DHT22;1976;51.694;6.256;2022-09-27T19:44:37;9.30;99.90
3923;DHT22;1976;51.694;6.256;2022-09-27T19:47:03;9.20;99.90
3923;DHT22;1976;51.694;6.256;2022-09-27T19:49:28;9.10;99.90
3923;DHT22;1976;51.694;6.256;2022-09-27T19:51:54;9.10;99.90
3923;DHT22;1976;51.694;6.256;2022-09-27T19:54:20;9.10;99.90
3923;DHT22;1976;51.694;6.256;2022-09-27T19:56:46;9.10;99.90
3923;DHT22;1976;51.694;6.256;2022-09-27T19:59:13;9.10;99.90